createdAt,value
2023-05-04T00:02:07.844Z,5.13
2023-05-04T00:04:34.935Z,6.25
2023-05-04T00:07:02.075Z,5.57
2023-05-04T00:09:29.117Z,4.47
2023-05-04T00:11:56.124Z,5.93
2023-05-04T00:14:23.127Z,4.35
2023-05-04T00:16:50.378Z,4.75
2023-05-04T00:19:19.555Z,7.97
2023-05-04T00:21:47.451Z,6.55
2023-05-04T00:24:14.488Z,5.72
2023-05-04T00:26:41.479Z,7.55
2023-05-04T00:29:08.524Z,4.75
2023-05-04T00:31:35.570Z,6.35
2023-05-04T00:34:02.688Z,6.05
2023-05-04T00:36:30.378Z,5.93
2023-05-04T00:38:57.398Z,6.75
2023-05-04T00:41:24.535Z,6.88
2023-05-04T00:43:51.783Z,9.05
2023-05-04T00:46:19.477Z,9.80
2023-05-04T00:48:48.877Z,7.72
2023-05-04T00:51:19.532Z,6.43
2023-05-04T00:53:47.958Z,7.53
2023-05-04T00:56:15.785Z,7.18
2023-05-04T00:58:43.261Z,10.20
2023-05-04T01:01:10.371Z,11.10
2023-05-04T01:03:37.470Z,5.60
2023-05-04T01:06:52.898Z,7.65
2023-05-04T01:09:44.858Z,6.68
2023-05-04T01:12:23.185Z,9.50
2023-05-04T01:14:53.956Z,8.65
2023-05-04T01:17:21.109Z,9.10
2023-05-04T01:19:48.140Z,9.95
2023-05-04T01:22:15.221Z,6.30
2023-05-04T01:24:42.407Z,7.70
2023-05-04T01:27:15.956Z,6.15
2023-05-04T01:29:49.748Z,9.07
2023-05-04T01:32:18.599Z,10.55
2023-05-04T01:34:46.137Z,9.52
2023-05-04T01:37:13.235Z,10.05
2023-05-04T01:39:40.227Z,12.60
2023-05-04T01:42:07.511Z,4.88
2023-05-04T01:44:34.841Z,5.88
2023-05-04T01:47:01.871Z,7.78
2023-05-04T01:49:28.856Z,8.85
2023-05-04T01:51:55.876Z,9.75
2023-05-04T01:54:25.316Z,7.70
2023-05-04T01:56:52.364Z,8.20
2023-05-04T01:59:19.504Z,7.80
2023-05-04T02:01:46.538Z,8.35
2023-05-04T02:04:13.647Z,5.80
2023-05-04T02:06:40.705Z,5.10
2023-05-04T02:09:07.800Z,8.77
2023-05-04T02:11:34.872Z,7.38
2023-05-04T02:14:01.828Z,8.10
2023-05-04T02:16:29.084Z,5.97
2023-05-04T02:18:56.385Z,7.93
2023-05-04T02:21:23.722Z,14.73
2023-05-04T02:23:50.754Z,12.20
2023-05-04T02:26:17.714Z,10.82
2023-05-04T02:28:44.755Z,6.13
2023-05-04T02:31:11.869Z,8.45
2023-05-04T02:33:38.957Z,8.65
2023-05-04T02:36:06.380Z,11.68
2023-05-04T02:38:33.466Z,8.02
2023-05-04T02:41:00.646Z,6.78
2023-05-04T02:43:27.675Z,7.35
2023-05-04T02:45:54.720Z,7.60
2023-05-04T02:48:21.763Z,9.07
2023-05-04T02:50:48.761Z,6.85
2023-05-04T02:53:15.976Z,10.02
2023-05-04T02:55:43.097Z,7.80
2023-05-04T02:58:10.127Z,7.15
2023-05-04T03:00:37.403Z,11.13
2023-05-04T03:03:04.546Z,8.65
2023-05-04T03:05:31.791Z,8.40
2023-05-04T03:07:58.848Z,7.38
2023-05-04T03:10:25.964Z,5.85
2023-05-04T03:12:53.004Z,5.13
2023-05-04T03:15:20.084Z,6.35
2023-05-04T03:17:47.217Z,6.68
2023-05-04T03:20:14.516Z,6.05
2023-05-04T03:22:42.416Z,5.13
2023-05-04T03:25:10.355Z,6.13
2023-05-04T03:27:37.721Z,5.95
2023-05-04T03:30:06.359Z,7.13
2023-05-04T03:32:35.088Z,5.47
2023-05-04T03:35:04.035Z,6.18
2023-05-04T03:37:31.847Z,7.57
2023-05-04T03:39:58.872Z,5.07
2023-05-04T03:42:26.225Z,4.75
2023-05-04T03:44:53.846Z,7.25
2023-05-04T03:47:20.859Z,6.28
2023-05-04T03:49:47.947Z,5.53
2023-05-04T03:52:15.006Z,5.53
2023-05-04T03:54:41.992Z,5.40
2023-05-04T03:57:09.230Z,5.30
2023-05-04T03:59:37.347Z,5.38
2023-05-04T04:02:06.554Z,5.50
2023-05-04T04:04:33.861Z,7.93
2023-05-04T04:07:01.296Z,8.45
2023-05-04T04:09:30.627Z,4.25
2023-05-04T04:11:57.749Z,5.35
2023-05-04T04:14:24.836Z,4.43
2023-05-04T04:16:51.821Z,5.85
2023-05-04T04:19:18.825Z,7.22
2023-05-04T04:21:45.970Z,4.97
2023-05-04T04:24:13.036Z,8.13
2023-05-04T04:26:40.120Z,6.53
2023-05-04T04:29:07.787Z,4.80
2023-05-04T04:31:34.910Z,4.45
2023-05-04T04:34:01.994Z,4.45
2023-05-04T04:36:29.635Z,4.40
2023-05-04T04:38:56.706Z,6.10
2023-05-04T04:41:25.111Z,4.45
2023-05-04T04:43:52.154Z,5.80
2023-05-04T04:46:19.413Z,6.47
2023-05-04T04:48:47.286Z,6.57
2023-05-04T04:51:14.365Z,6.13
2023-05-04T04:53:41.627Z,4.68
2023-05-04T04:56:09.919Z,3.95
2023-05-04T04:58:37.021Z,5.10
2023-05-04T05:01:05.202Z,5.93
2023-05-04T05:03:32.384Z,5.50
2023-05-04T05:06:01.817Z,6.60
2023-05-04T05:08:29.011Z,3.97
2023-05-04T05:10:56.471Z,4.05
2023-05-04T05:13:23.575Z,6.05
2023-05-04T05:15:50.760Z,7.32
2023-05-04T05:18:17.755Z,5.65
2023-05-04T05:20:44.840Z,3.22
2023-05-04T05:23:11.862Z,3.60
2023-05-04T05:25:39.345Z,4.88
2023-05-04T05:28:06.499Z,3.28
2023-05-04T05:30:33.615Z,3.67
2023-05-04T05:33:00.628Z,4.47
2023-05-04T05:35:27.655Z,5.60
2023-05-04T05:37:55.071Z,3.22
2023-05-04T05:40:22.561Z,6.35
2023-05-04T05:42:50.136Z,3.10
2023-05-04T05:45:17.129Z,4.00
2023-05-04T05:47:44.167Z,2.50
2023-05-04T05:50:13.691Z,7.18
2023-05-04T05:52:40.712Z,3.38
2023-05-04T05:55:08.136Z,3.83
2023-05-04T05:57:35.218Z,4.78
2023-05-04T06:00:02.439Z,6.90
2023-05-04T06:02:39.893Z,7.35
2023-05-04T06:05:07.343Z,5.43
2023-05-04T06:07:34.412Z,3.83
2023-05-04T06:10:01.517Z,3.10
2023-05-04T06:12:33.170Z,2.70
2023-05-04T06:15:00.538Z,3.28
2023-05-04T06:17:27.634Z,2.17
2023-05-04T06:19:54.675Z,4.40
2023-05-04T06:22:21.837Z,3.40
2023-05-04T06:24:48.880Z,3.65
2023-05-04T06:27:16.037Z,2.83
2023-05-04T06:29:43.182Z,2.63
2023-05-04T06:32:11.196Z,2.75
2023-05-04T06:34:38.371Z,4.70
2023-05-04T06:37:05.530Z,2.28
2023-05-04T06:39:32.983Z,3.50
2023-05-04T06:42:00.050Z,3.20
2023-05-04T06:44:28.584Z,2.47
2023-05-04T06:46:55.878Z,2.08
2023-05-04T06:49:23.003Z,3.38
2023-05-04T06:51:50.276Z,1.85
2023-05-04T06:54:17.331Z,2.00
2023-05-04T06:56:44.398Z,2.30
2023-05-04T06:59:11.524Z,3.05
2023-05-04T07:01:38.985Z,2.58
2023-05-04T07:04:06.194Z,4.72
2023-05-04T07:06:33.834Z,6.32
2023-05-04T07:09:01.279Z,3.72
2023-05-04T07:11:29.091Z,5.88
2023-05-04T07:13:56.158Z,3.72
2023-05-04T07:16:23.317Z,4.95
2023-05-04T07:18:50.517Z,5.72
2023-05-04T07:21:27.734Z,3.80
2023-05-04T07:23:56.432Z,7.18
2023-05-04T07:26:23.516Z,4.95
2023-05-04T07:28:50.922Z,3.10
2023-05-04T07:31:18.027Z,2.80
2023-05-04T07:33:45.253Z,3.05
2023-05-04T07:36:12.327Z,4.00
2023-05-04T07:38:39.435Z,3.53
2023-05-04T07:41:07.443Z,3.30
2023-05-04T07:43:34.573Z,4.30
2023-05-04T07:46:01.754Z,2.80
2023-05-04T07:48:29.173Z,5.35
2023-05-04T07:50:56.179Z,4.60
2023-05-04T07:53:25.586Z,4.53
2023-05-04T07:55:54.476Z,4.85
2023-05-04T07:58:21.555Z,4.63
2023-05-04T08:00:48.562Z,3.95
2023-05-04T08:03:15.837Z,3.00
2023-05-04T08:05:42.821Z,5.60
2023-05-04T08:08:09.913Z,4.55
2023-05-04T08:10:37.625Z,3.25
2023-05-04T08:13:05.853Z,4.00
2023-05-04T08:15:33.201Z,4.32
2023-05-04T08:18:00.491Z,3.63
2023-05-04T08:20:27.662Z,5.00
2023-05-04T08:22:54.713Z,3.40
2023-05-04T08:25:25.571Z,4.07
2023-05-04T08:27:53.267Z,3.80
2023-05-04T08:30:20.553Z,4.88
2023-05-04T08:32:48.676Z,4.68
2023-05-04T08:35:15.928Z,4.47
2023-05-04T08:37:43.051Z,4.28
2023-05-04T08:40:10.271Z,4.32
2023-05-04T08:42:38.052Z,4.15
2023-05-04T08:45:05.620Z,4.78
2023-05-04T08:47:34.153Z,2.88
2023-05-04T08:50:01.192Z,3.78
2023-05-04T08:52:31.309Z,4.35
2023-05-04T08:54:59.029Z,4.03
2023-05-04T08:57:27.083Z,3.72
2023-05-04T08:59:55.154Z,3.50
2023-05-04T09:02:23.833Z,3.70
2023-05-04T09:04:52.847Z,8.55
2023-05-04T09:07:22.019Z,4.97
2023-05-04T09:09:51.767Z,5.07
2023-05-04T09:12:19.469Z,3.95
2023-05-04T09:14:46.751Z,4.65
2023-05-04T09:17:17.986Z,4.47
2023-05-04T09:19:45.234Z,4.90
2023-05-04T09:22:19.561Z,7.45
2023-05-04T09:24:47.006Z,4.82
2023-05-04T09:27:18.808Z,4.07
2023-05-04T09:29:53.969Z,7.82
2023-05-04T09:32:21.332Z,3.03
2023-05-04T09:34:50.442Z,5.75
2023-05-04T09:37:20.868Z,3.67
2023-05-04T09:39:55.811Z,3.60
2023-05-04T09:42:24.285Z,4.47
2023-05-04T09:45:05.363Z,5.13
2023-05-04T09:47:39.390Z,4.65
2023-05-04T09:50:19.152Z,4.85
2023-05-04T09:52:48.313Z,4.03
2023-05-04T09:55:17.820Z,4.25
2023-05-04T09:57:46.767Z,6.40
2023-05-04T10:00:18.958Z,2.88
2023-05-04T10:02:48.178Z,4.22
2023-05-04T10:05:17.869Z,6.20
2023-05-04T10:07:45.668Z,5.65
2023-05-04T10:10:14.610Z,3.38
2023-05-04T10:12:41.811Z,3.75
2023-05-04T10:15:12.159Z,4.28
2023-05-04T10:17:56.942Z,3.47
2023-05-04T10:20:32.826Z,4.80
2023-05-04T10:23:24.521Z,8.43
2023-05-04T10:26:13.836Z,3.72
2023-05-04T10:28:40.922Z,3.20
2023-05-04T10:31:07.985Z,4.07
2023-05-04T10:33:42.075Z,5.38
2023-05-04T10:36:12.086Z,3.42
2023-05-04T10:38:40.469Z,3.92
2023-05-04T10:41:18.093Z,5.30
2023-05-04T10:43:51.017Z,2.83
2023-05-04T10:46:22.946Z,3.92
2023-05-04T10:48:51.360Z,5.50
2023-05-04T10:51:24.393Z,4.47
2023-05-04T10:53:54.331Z,4.00
2023-05-04T10:56:28.540Z,3.40
2023-05-04T10:58:56.035Z,3.08
2023-05-04T11:01:23.403Z,3.97
2023-05-04T11:03:52.595Z,4.32
2023-05-04T11:06:23.418Z,4.18
2023-05-04T11:09:02.432Z,4.60
2023-05-04T11:11:29.822Z,6.05
2023-05-04T11:13:57.409Z,5.20
2023-05-04T11:16:28.287Z,4.32
2023-05-04T11:18:55.528Z,3.45
2023-05-04T11:21:28.361Z,7.20
2023-05-04T11:23:56.329Z,3.47
2023-05-04T11:26:24.496Z,5.72
2023-05-04T11:28:51.789Z,3.38
2023-05-04T11:31:20.502Z,4.40
2023-05-04T11:33:52.465Z,3.45
2023-05-04T11:36:21.176Z,3.88
2023-05-04T11:38:49.078Z,4.43
2023-05-04T11:41:16.133Z,3.85
2023-05-04T11:43:45.367Z,2.92
2023-05-04T11:46:13.175Z,7.53
2023-05-04T11:48:41.020Z,5.40
2023-05-04T11:51:08.371Z,3.13
2023-05-04T11:53:39.975Z,3.65
2023-05-04T11:56:09.086Z,5.05
2023-05-04T11:58:37.064Z,2.35
2023-05-04T12:01:04.539Z,3.47
2023-05-04T12:06:04.782Z,4.43
2023-05-04T12:08:36.494Z,4.82
2023-05-04T12:11:26.257Z,2.58
2023-05-04T12:14:06.299Z,7.38
2023-05-04T12:16:33.933Z,2.92
2023-05-04T12:19:12.795Z,3.35
2023-05-04T12:21:58.440Z,6.00
2023-05-04T12:24:27.771Z,3.63
2023-05-04T12:26:54.857Z,6.43
2023-05-04T12:29:22.153Z,5.22
2023-05-04T12:31:49.364Z,3.45
2023-05-04T12:34:16.640Z,3.15
2023-05-04T12:36:44.623Z,3.20
2023-05-04T12:39:11.959Z,2.70
2023-05-04T12:41:39.005Z,4.38
2023-05-04T12:44:06.116Z,2.60
2023-05-04T12:46:33.257Z,4.65
2023-05-04T12:49:00.288Z,4.10
2023-05-04T12:51:27.536Z,3.13
2023-05-04T12:53:55.772Z,3.92
2023-05-04T12:56:23.064Z,4.80
2023-05-04T12:58:50.023Z,3.22
2023-05-04T13:01:17.370Z,3.63
2023-05-04T13:03:44.665Z,4.97
2023-05-04T13:06:11.987Z,6.82
2023-05-04T13:08:39.100Z,5.63
2023-05-04T13:11:06.411Z,5.25
2023-05-04T13:13:34.544Z,6.90
2023-05-04T13:16:01.645Z,2.83
2023-05-04T13:18:29.150Z,6.22
2023-05-04T13:20:56.921Z,4.60
2023-05-04T13:23:24.535Z,6.00
2023-05-04T13:25:52.355Z,3.92
2023-05-04T13:28:19.535Z,5.20
2023-05-04T13:30:46.644Z,2.95
2023-05-04T13:33:27.864Z,3.88
2023-05-04T13:36:02.084Z,3.20
2023-05-04T13:38:29.261Z,5.60
2023-05-04T13:40:56.459Z,5.45
2023-05-04T13:43:23.870Z,4.32
2023-05-04T13:45:51.433Z,5.05
2023-05-04T13:48:18.553Z,3.83
2023-05-04T13:50:46.083Z,3.15
2023-05-04T13:53:13.358Z,3.53
2023-05-04T13:55:40.507Z,3.75
2023-05-04T13:58:07.582Z,3.92
2023-05-04T14:00:34.720Z,7.80
2023-05-04T14:03:02.104Z,5.38
2023-05-04T14:05:30.070Z,4.32
2023-05-04T14:07:57.435Z,4.35
2023-05-04T14:10:24.542Z,4.07
2023-05-04T14:12:52.013Z,3.83
2023-05-04T14:15:22.774Z,5.55
2023-05-04T14:17:50.692Z,4.18
2023-05-04T14:20:18.354Z,3.10
2023-05-04T14:22:45.525Z,3.58
2023-05-04T14:25:13.470Z,3.40
2023-05-04T14:27:43.527Z,3.20
2023-05-04T14:30:11.413Z,4.75
2023-05-04T14:32:38.529Z,4.10
2023-05-04T14:35:10.981Z,4.07
2023-05-04T14:37:43.254Z,2.85
2023-05-04T14:40:11.315Z,2.80
2023-05-04T14:42:39.208Z,3.95
2023-05-04T14:45:08.212Z,3.90
2023-05-04T14:47:35.628Z,4.32
2023-05-04T14:50:06.451Z,4.85
2023-05-04T14:52:33.722Z,3.65
2023-05-04T14:55:01.105Z,3.28
2023-05-04T14:57:28.171Z,2.63
2023-05-04T14:59:55.260Z,2.45
2023-05-04T15:02:22.440Z,3.40
2023-05-04T15:04:49.626Z,2.70
2023-05-04T15:07:18.756Z,4.82
2023-05-04T15:09:45.835Z,4.05
2023-05-04T15:12:12.950Z,4.25
2023-05-04T15:14:39.976Z,3.72
2023-05-04T15:17:07.393Z,3.35
2023-05-04T15:19:37.735Z,3.75
2023-05-04T15:22:05.742Z,3.75
2023-05-04T15:24:33.068Z,4.93
2023-05-04T15:27:00.206Z,4.10
2023-05-04T15:29:27.200Z,4.10
2023-05-04T15:31:55.488Z,3.58
2023-05-04T15:34:22.662Z,4.93
2023-05-04T15:36:49.888Z,3.70
2023-05-04T15:39:16.883Z,3.55
2023-05-04T15:41:43.922Z,4.70
2023-05-04T15:44:10.906Z,4.53
2023-05-04T15:46:38.067Z,3.47
2023-05-04T15:49:05.120Z,5.88
2023-05-04T15:51:32.271Z,5.18
2023-05-04T15:53:59.421Z,3.40
2023-05-04T15:56:26.695Z,6.75
2023-05-04T15:58:53.753Z,4.07
2023-05-04T16:01:20.832Z,4.30
2023-05-04T16:03:51.023Z,4.38
2023-05-04T16:06:18.258Z,3.40
2023-05-04T16:08:45.342Z,6.35
2023-05-04T16:11:12.549Z,5.72
2023-05-04T16:13:39.598Z,4.63
2023-05-04T16:16:07.211Z,4.15
2023-05-04T16:18:34.497Z,3.15
2023-05-04T16:21:01.588Z,4.97
2023-05-04T16:23:28.752Z,5.32
2023-05-04T16:25:55.852Z,3.35
2023-05-04T16:28:23.349Z,4.18
2023-05-04T16:30:50.453Z,4.38
2023-05-04T16:33:17.757Z,11.35
2023-05-04T16:35:44.810Z,6.22
2023-05-04T16:38:15.421Z,4.05
2023-05-04T16:40:43.044Z,2.80
2023-05-04T16:43:10.647Z,7.65
2023-05-04T16:45:38.332Z,8.38
2023-05-04T16:48:06.545Z,3.13
2023-05-04T16:50:33.813Z,3.35
2023-05-04T16:53:00.965Z,5.70
2023-05-04T16:55:28.142Z,5.03
2023-05-04T16:57:56.697Z,3.45
2023-05-04T17:00:24.520Z,3.55
2023-05-04T17:02:52.922Z,3.97
2023-05-04T17:05:20.756Z,6.65
2023-05-04T17:07:48.022Z,4.32
2023-05-04T17:10:15.186Z,4.35
2023-05-04T17:12:42.690Z,4.75
2023-05-04T17:15:10.968Z,7.65
2023-05-04T17:17:38.145Z,4.18
2023-05-04T17:20:06.493Z,5.97
2023-05-04T17:22:33.895Z,5.70
2023-05-04T17:25:01.407Z,5.75
2023-05-04T17:27:31.005Z,7.95
2023-05-04T17:29:58.183Z,4.35
2023-05-04T17:32:25.275Z,4.45
2023-05-04T17:34:52.402Z,6.22
2023-05-04T17:37:19.534Z,4.78
2023-05-04T17:39:47.293Z,4.30
2023-05-04T17:42:16.111Z,6.25
2023-05-04T17:44:43.324Z,5.43
2023-05-04T17:47:10.684Z,6.50
2023-05-04T17:49:37.928Z,6.80
2023-05-04T17:52:05.191Z,3.50
2023-05-04T17:54:32.471Z,4.40
2023-05-04T17:56:59.463Z,6.20
2023-05-04T17:59:26.469Z,5.25
2023-05-04T18:01:53.705Z,7.82
2023-05-04T18:04:21.005Z,6.72
2023-05-04T18:06:50.573Z,6.70
2023-05-04T18:09:19.611Z,6.38
2023-05-04T18:11:47.463Z,3.88
2023-05-04T18:14:14.526Z,4.60
2023-05-04T18:16:41.670Z,5.10
2023-05-04T18:19:08.883Z,4.88
2023-05-04T18:21:39.147Z,7.25
2023-05-04T18:24:06.780Z,7.07
2023-05-04T18:26:33.947Z,5.38
2023-05-04T18:29:11.186Z,5.30
2023-05-04T18:31:44.843Z,7.43
2023-05-04T18:34:11.927Z,6.03
2023-05-04T18:36:38.905Z,5.05
2023-05-04T18:39:05.863Z,5.03
2023-05-04T18:41:32.895Z,7.78
2023-05-04T18:44:15.460Z,4.28
2023-05-04T18:46:42.843Z,5.57
2023-05-04T18:49:09.964Z,5.68
2023-05-04T18:51:37.062Z,6.85
2023-05-04T18:54:04.286Z,10.40
2023-05-04T18:56:31.355Z,12.95
2023-05-04T18:58:58.395Z,9.93
2023-05-04T19:01:27.887Z,8.25
2023-05-04T19:03:55.224Z,7.53
2023-05-04T19:06:22.300Z,6.18
2023-05-04T19:08:49.636Z,8.75
2023-05-04T19:11:16.777Z,7.90
2023-05-04T19:13:43.847Z,7.07
2023-05-04T19:16:14.342Z,8.35
2023-05-04T19:18:41.501Z,8.38
2023-05-04T19:21:08.552Z,9.52
2023-05-04T19:23:35.887Z,10.57
2023-05-04T19:26:04.273Z,8.13
2023-05-04T19:28:31.502Z,11.95
2023-05-04T19:30:58.624Z,7.55
2023-05-04T19:33:36.432Z,10.35
2023-05-04T19:36:12.377Z,7.95
2023-05-04T19:38:39.451Z,7.35
2023-05-04T19:41:06.493Z,9.38
2023-05-04T19:43:33.711Z,7.95
2023-05-04T19:46:02.452Z,10.45
2023-05-04T19:48:29.623Z,8.68
2023-05-04T19:50:56.806Z,7.95
2023-05-04T19:53:23.857Z,10.75
2023-05-04T19:55:51.220Z,9.63
2023-05-04T19:58:18.404Z,8.90
2023-05-04T20:00:45.470Z,8.15
2023-05-04T20:03:12.542Z,8.63
2023-05-04T20:05:39.668Z,9.65
2023-05-04T20:08:06.800Z,7.47
2023-05-04T20:10:33.853Z,9.38
2023-05-04T20:13:01.375Z,5.85
2023-05-04T20:15:28.492Z,7.65
2023-05-04T20:17:55.572Z,10.05
2023-05-04T20:20:22.777Z,8.50
2023-05-04T20:22:52.283Z,6.55
2023-05-04T20:25:20.159Z,6.97
2023-05-04T20:27:49.142Z,6.55
2023-05-04T20:30:16.332Z,9.65
2023-05-04T20:32:44.283Z,6.28
2023-05-04T20:35:11.776Z,5.55
2023-05-04T20:37:40.158Z,5.50
2023-05-04T20:40:08.348Z,7.30
2023-05-04T20:42:35.820Z,10.00
2023-05-04T20:45:02.869Z,6.53
2023-05-04T20:47:33.456Z,6.00
2023-05-04T20:50:01.229Z,6.25
2023-05-04T20:52:31.780Z,5.38
2023-05-04T20:54:58.968Z,7.63
2023-05-04T20:57:26.184Z,7.10
2023-05-04T20:59:53.482Z,4.88
2023-05-04T21:02:20.783Z,7.00
2023-05-04T21:04:48.429Z,5.50
2023-05-04T21:07:16.029Z,7.18
2023-05-04T21:09:43.140Z,6.35
2023-05-04T21:12:10.223Z,6.28
2023-05-04T21:14:40.658Z,6.72
2023-05-04T21:17:08.635Z,6.70
2023-05-04T21:19:35.796Z,5.43
2023-05-04T21:22:02.779Z,8.77
2023-05-04T21:24:32.135Z,8.40
2023-05-04T21:26:59.785Z,8.40
2023-05-04T21:29:26.906Z,7.47
2023-05-04T21:31:54.111Z,5.85
2023-05-04T21:34:21.261Z,6.07
2023-05-04T21:36:48.288Z,8.02
2023-05-04T21:39:15.902Z,4.75
2023-05-04T21:41:42.926Z,6.63
2023-05-04T21:44:09.976Z,7.38
2023-05-04T21:46:37.107Z,4.72
2023-05-04T21:49:04.208Z,5.07
2023-05-04T21:51:31.788Z,4.55
2023-05-04T21:53:58.925Z,4.97
2023-05-04T21:56:25.973Z,6.47
2023-05-04T21:58:52.990Z,4.65
2023-05-04T22:01:20.208Z,4.82
2023-05-04T22:03:47.341Z,5.68
2023-05-04T22:06:14.506Z,6.15
2023-05-04T22:08:41.551Z,4.97
2023-05-04T22:11:09.295Z,4.47
2023-05-04T22:13:36.701Z,6.22
2023-05-04T22:16:03.790Z,5.45
2023-05-04T22:18:31.051Z,4.68
2023-05-04T22:20:58.103Z,4.50
2023-05-04T22:23:25.364Z,4.07
2023-05-04T22:25:52.475Z,4.25
2023-05-04T22:28:19.432Z,5.55
2023-05-04T22:30:46.432Z,10.68
2023-05-04T22:33:13.427Z,5.00
2023-05-04T22:35:40.461Z,6.43
2023-05-04T22:38:07.569Z,4.10
2023-05-04T22:40:34.481Z,5.07
2023-05-04T22:43:01.372Z,4.78
2023-05-04T22:45:28.384Z,5.00
2023-05-04T22:47:55.942Z,7.30
2023-05-04T22:50:23.041Z,6.25
2023-05-04T22:52:50.002Z,12.10
2023-05-04T22:55:17.071Z,8.95
2023-05-04T22:57:44.026Z,5.80
2023-05-04T23:00:11.771Z,5.95
2023-05-04T23:02:38.948Z,6.85
2023-05-04T23:05:06.725Z,7.75
2023-05-04T23:07:33.954Z,10.10
2023-05-04T23:10:01.013Z,8.48
2023-05-04T23:12:28.238Z,9.60
2023-05-04T23:14:55.122Z,9.45
2023-05-04T23:17:22.323Z,8.93
2023-05-04T23:19:49.435Z,8.10
2023-05-04T23:22:16.630Z,6.70
2023-05-04T23:24:43.532Z,7.88
2023-05-04T23:27:11.571Z,6.68
2023-05-04T23:29:38.806Z,7.72
2023-05-04T23:32:06.569Z,5.57
2023-05-04T23:34:33.760Z,6.05
2023-05-04T23:37:00.771Z,5.68
2023-05-04T23:39:27.849Z,5.30
2023-05-04T23:41:54.790Z,5.25
2023-05-04T23:44:21.885Z,6.40
2023-05-04T23:46:48.848Z,4.40
2023-05-04T23:49:15.887Z,5.47
2023-05-04T23:51:42.826Z,6.53
2023-05-04T23:54:09.729Z,5.20
2023-05-04T23:56:36.693Z,4.90
2023-05-04T23:59:04.058Z,6.57
